createdAt,value
2022-08-05T00:00:46.706Z,0.00
2022-08-05T00:01:49.011Z,0.00
2022-08-05T00:02:39.186Z,0.00
2022-08-05T00:03:38.065Z,0.00
2022-08-05T00:04:38.080Z,0.00
2022-08-05T00:06:04.662Z,0.00
2022-08-05T00:06:39.074Z,0.00
2022-08-05T00:08:01.077Z,0.00
2022-08-05T00:08:39.061Z,0.00
2022-08-05T00:09:38.008Z,0.00
2022-08-05T00:10:39.028Z,0.00
2022-08-05T00:11:48.335Z,0.00
2022-08-05T00:12:55.800Z,0.00
2022-08-05T00:13:40.102Z,0.00
2022-08-05T00:14:37.943Z,0.00
2022-08-05T00:15:55.851Z,0.00
2022-08-05T00:16:52.870Z,0.00
2022-08-05T00:17:38.951Z,0.00
2022-08-05T00:18:38.110Z,0.00
2022-08-05T00:19:40.687Z,0.00
2022-08-05T00:20:38.916Z,0.00
2022-08-05T00:21:37.911Z,0.00
2022-08-05T00:22:37.894Z,0.00
2022-08-05T00:23:46.044Z,0.00
2022-08-05T00:24:42.483Z,0.00
2022-08-05T00:25:45.908Z,0.00
2022-08-05T00:26:38.844Z,0.00
2022-08-05T00:27:39.438Z,0.00
2022-08-05T00:28:37.790Z,0.00
2022-08-05T00:29:38.414Z,0.00
2022-08-05T00:30:37.768Z,0.00
2022-08-05T00:31:53.274Z,0.00
2022-08-05T00:32:38.757Z,0.00
2022-08-05T00:34:54.965Z,0.00
2022-08-05T00:34:55.195Z,0.00
2022-08-05T00:35:38.717Z,0.00
2022-08-05T00:37:10.544Z,0.00
2022-08-05T00:37:53.011Z,0.00
2022-08-05T00:38:38.677Z,0.00
2022-08-05T00:39:44.528Z,0.00
2022-08-05T00:40:38.678Z,0.00
2022-08-05T00:41:51.449Z,0.00
2022-08-05T00:42:38.654Z,0.00
2022-08-05T00:43:46.445Z,0.00
2022-08-05T00:44:38.627Z,0.00
2022-08-05T00:45:42.812Z,0.00
2022-08-05T00:46:43.640Z,0.00
2022-08-05T00:47:56.020Z,0.00
2022-08-05T00:48:50.989Z,0.00
2022-08-05T00:49:44.449Z,0.00
2022-08-05T00:50:38.551Z,0.00
2022-08-05T00:51:51.400Z,0.00
2022-08-05T00:52:39.146Z,0.00
2022-08-05T00:54:01.264Z,0.00
2022-08-05T00:54:38.510Z,0.00
2022-08-05T00:55:42.476Z,0.00
2022-08-05T00:56:38.525Z,0.00
2022-08-05T00:57:58.751Z,0.00
2022-08-05T00:58:38.485Z,0.00
2022-08-05T00:59:44.583Z,0.00
2022-08-05T01:00:38.546Z,0.00
2022-08-05T01:01:48.673Z,0.00
2022-08-05T01:02:38.439Z,0.00
2022-08-05T01:03:37.478Z,0.00
2022-08-05T01:04:37.423Z,0.00
2022-08-05T01:05:37.397Z,0.00
2022-08-05T01:06:37.375Z,0.00
2022-08-05T01:07:37.366Z,0.00
2022-08-05T01:08:42.737Z,0.00
2022-08-05T01:09:38.376Z,0.00
2022-08-05T01:10:37.371Z,0.00
2022-08-05T01:11:37.667Z,0.00
2022-08-05T01:12:37.317Z,0.00
2022-08-05T01:13:59.187Z,0.00
2022-08-05T01:14:38.301Z,0.00
2022-08-05T01:15:37.305Z,0.00
2022-08-05T01:16:38.271Z,0.00
2022-08-05T01:17:40.254Z,0.00
2022-08-05T01:18:38.302Z,0.00
2022-08-05T01:19:56.188Z,0.00
2022-08-05T01:20:38.236Z,0.00
2022-08-05T01:21:38.049Z,0.00
2022-08-05T01:22:37.231Z,0.00
2022-08-05T01:23:37.207Z,0.00
2022-08-05T01:24:37.212Z,0.00
2022-08-05T01:25:40.067Z,0.00
2022-08-05T01:26:37.171Z,0.00
2022-08-05T01:27:37.178Z,0.00
2022-08-05T01:28:39.214Z,0.00
2022-08-05T01:29:46.219Z,0.00
2022-08-05T01:30:50.626Z,0.00
2022-08-05T01:32:28.072Z,0.00
2022-08-05T01:33:28.071Z,0.00
2022-08-05T01:34:29.081Z,0.00
2022-08-05T01:35:52.238Z,0.00
2022-08-05T01:36:29.034Z,0.00
2022-08-05T01:37:28.392Z,0.00
2022-08-05T01:38:29.886Z,0.00
2022-08-05T01:39:46.196Z,0.00
2022-08-05T01:40:29.225Z,0.00
2022-08-05T01:41:27.973Z,0.00
2022-08-05T01:42:28.031Z,0.00
2022-08-05T01:43:27.943Z,0.00
2022-08-05T01:44:35.326Z,0.00
2022-08-05T01:45:28.923Z,0.00
2022-08-05T01:46:42.933Z,0.00
2022-08-05T01:47:38.855Z,0.00
2022-08-05T01:48:28.892Z,0.00
2022-08-05T01:49:27.871Z,0.00
2022-08-05T01:50:29.647Z,0.00
2022-08-05T01:51:30.047Z,0.00
2022-08-05T01:52:27.856Z,0.00
2022-08-05T01:53:55.187Z,0.00
2022-08-05T01:54:28.828Z,0.00
2022-08-05T01:55:27.806Z,0.00
2022-08-05T01:58:11.343Z,0.00
2022-08-05T01:58:11.650Z,0.00
2022-08-05T01:58:40.300Z,0.00
2022-08-05T01:59:28.779Z,0.00
2022-08-05T02:00:30.253Z,0.00
2022-08-05T02:01:27.771Z,0.00
2022-08-05T02:02:28.646Z,0.00
2022-08-05T02:03:31.645Z,0.00
2022-08-05T02:04:27.727Z,0.00
2022-08-05T02:05:28.641Z,0.00
2022-08-05T02:06:37.575Z,0.00
2022-08-05T02:07:30.464Z,0.00
2022-08-05T02:08:30.802Z,0.00
2022-08-05T02:09:28.167Z,0.00
2022-08-05T02:10:28.699Z,0.00
2022-08-05T02:11:33.606Z,0.00
2022-08-05T02:12:28.645Z,0.00
2022-08-05T02:13:27.617Z,0.00
2022-08-05T02:14:28.605Z,0.00
2022-08-05T02:15:31.161Z,0.00
2022-08-05T02:16:28.591Z,0.00
2022-08-05T02:18:28.383Z,0.00
2022-08-05T02:18:34.305Z,0.00
2022-08-05T02:19:28.563Z,0.00
2022-08-05T02:20:28.549Z,0.00
2022-08-05T02:21:27.544Z,0.00
2022-08-05T02:22:27.575Z,0.00
2022-08-05T02:23:27.518Z,0.00
2022-08-05T02:24:27.499Z,0.00
2022-08-05T02:25:27.505Z,0.00
2022-08-05T02:26:28.497Z,0.00
2022-08-05T02:27:30.116Z,0.00
2022-08-05T02:28:31.274Z,0.00
2022-08-05T02:29:59.871Z,0.00
2022-08-05T02:30:28.442Z,0.00
2022-08-05T02:31:28.357Z,0.00
2022-08-05T02:32:29.351Z,0.00
2022-08-05T02:33:36.064Z,0.00
2022-08-05T02:34:28.399Z,0.00
2022-08-05T02:35:28.021Z,0.00
2022-08-05T02:36:27.891Z,0.00
2022-08-05T02:37:27.385Z,0.00
2022-08-05T02:38:27.354Z,0.00
2022-08-05T02:39:28.411Z,0.00
2022-08-05T02:40:27.531Z,0.00
2022-08-05T02:41:28.982Z,0.00
2022-08-05T02:42:31.930Z,0.00
2022-08-05T02:43:28.297Z,0.00
2022-08-05T02:44:27.285Z,0.00
2022-08-05T02:45:28.530Z,0.00
2022-08-05T02:46:28.273Z,0.00
2022-08-05T02:48:06.860Z,0.00
2022-08-05T02:48:29.549Z,0.00
2022-08-05T02:49:27.244Z,0.00
2022-08-05T02:50:28.231Z,0.00
2022-08-05T02:51:48.451Z,0.00
2022-08-05T02:52:30.250Z,0.00
2022-08-05T02:53:27.223Z,0.00
2022-08-05T02:54:34.463Z,0.00
2022-08-05T02:55:54.399Z,0.00
2022-08-05T02:56:28.166Z,0.00
2022-08-05T02:58:10.567Z,0.00
2022-08-05T02:58:28.945Z,0.00
2022-08-05T02:59:27.826Z,0.00
2022-08-05T03:00:27.131Z,0.00
2022-08-05T03:01:27.320Z,0.00
2022-08-05T03:02:27.414Z,0.00
2022-08-05T03:03:27.094Z,0.00
2022-08-05T03:04:28.071Z,0.00
2022-08-05T03:06:53.881Z,0.00
2022-08-05T03:06:56.887Z,0.00
2022-08-05T03:08:00.669Z,0.00
2022-08-05T03:08:29.726Z,0.00
2022-08-05T03:09:37.618Z,0.00
2022-08-05T03:10:28.009Z,0.00
2022-08-05T03:11:55.096Z,0.00
2022-08-05T03:12:27.996Z,0.00
2022-08-05T03:13:27.674Z,0.00
2022-08-05T03:14:27.991Z,0.00
2022-08-05T03:15:26.963Z,0.00
2022-08-05T03:16:26.953Z,0.00
2022-08-05T03:17:26.972Z,0.00
2022-08-05T03:18:30.115Z,0.00
2022-08-05T03:19:34.231Z,0.00
2022-08-05T03:20:27.922Z,0.00
2022-08-05T03:21:28.759Z,5.62
2022-08-05T03:22:32.182Z,5.62
2022-08-05T03:23:27.881Z,5.62
2022-08-05T03:24:30.063Z,5.62
2022-08-05T03:25:33.586Z,5.62
2022-08-05T03:26:31.095Z,11.25
2022-08-05T03:27:39.213Z,11.25
2022-08-05T03:28:27.830Z,11.25
2022-08-05T03:29:45.424Z,11.25
2022-08-05T03:30:28.672Z,11.25
2022-08-05T03:31:55.740Z,11.25
2022-08-05T03:32:31.090Z,11.25
2022-08-05T03:33:42.217Z,11.25
2022-08-05T03:34:27.752Z,11.25
2022-08-05T03:35:26.745Z,16.88
2022-08-05T03:36:30.368Z,16.88
2022-08-05T03:37:26.976Z,16.88
2022-08-05T03:38:33.356Z,16.88
2022-08-05T03:39:27.974Z,16.88
2022-08-05T03:40:32.012Z,22.50
2022-08-05T03:41:33.278Z,22.50
2022-08-05T03:42:28.920Z,22.50
2022-08-05T03:44:09.122Z,22.50
2022-08-05T03:44:28.983Z,28.12
2022-08-05T03:45:26.640Z,28.12
2022-08-05T03:46:29.592Z,33.75
2022-08-05T03:47:30.545Z,33.75
2022-08-05T03:48:27.608Z,33.75
2022-08-05T03:49:31.109Z,33.75
2022-08-05T03:50:27.579Z,39.38
2022-08-05T03:52:37.211Z,39.38
2022-08-05T03:52:37.482Z,39.38
2022-08-05T03:55:52.963Z,39.38
2022-08-05T03:55:53.614Z,45.00
2022-08-05T03:56:05.809Z,45.00
2022-08-05T03:56:33.078Z,50.62
2022-08-05T03:57:41.110Z,50.62
2022-08-05T03:58:29.143Z,50.62
2022-08-05T03:59:26.492Z,56.25
2022-08-05T04:00:26.476Z,61.88
2022-08-05T04:01:26.503Z,61.88
2022-08-05T04:02:38.310Z,67.50
2022-08-05T04:03:28.509Z,73.12
2022-08-05T04:04:26.627Z,78.75
2022-08-05T04:05:27.996Z,84.38
2022-08-05T04:06:27.422Z,84.38
2022-08-05T04:07:26.397Z,84.38
2022-08-05T04:08:34.677Z,84.38
2022-08-05T04:09:27.390Z,90.00
2022-08-05T04:10:27.768Z,90.00
2022-08-05T04:11:47.570Z,95.62
2022-08-05T04:12:27.354Z,101.25
2022-08-05T04:13:26.351Z,101.25
2022-08-05T04:14:30.233Z,106.88
2022-08-05T04:15:26.310Z,106.88
2022-08-05T04:16:32.407Z,112.50
2022-08-05T04:17:36.437Z,118.12
2022-08-05T04:18:27.308Z,123.75
2022-08-05T04:19:26.271Z,123.75
2022-08-05T04:20:26.258Z,135.00
2022-08-05T04:22:08.506Z,140.62
2022-08-05T04:22:27.236Z,140.62
2022-08-05T04:24:04.695Z,140.62
2022-08-05T04:24:27.642Z,135.00
2022-08-05T04:25:57.976Z,146.25
2022-08-05T04:26:27.219Z,151.88
2022-08-05T04:27:41.836Z,157.50
2022-08-05T04:28:30.953Z,168.75
2022-08-05T04:29:27.173Z,180.00
2022-08-05T04:30:26.369Z,191.25
2022-08-05T04:31:27.715Z,196.88
2022-08-05T04:32:30.854Z,208.12
2022-08-05T04:33:54.774Z,213.75
2022-08-05T04:34:32.284Z,213.75
2022-08-05T04:35:27.102Z,219.38
2022-08-05T04:36:46.121Z,219.38
2022-08-05T04:38:02.089Z,219.38
2022-08-05T04:38:39.796Z,213.75
2022-08-05T04:39:27.563Z,191.25
2022-08-05T04:40:26.043Z,180.00
2022-08-05T04:41:37.100Z,180.00
2022-08-05T04:42:27.029Z,180.00
2022-08-05T04:43:26.100Z,202.50
2022-08-05T04:44:30.266Z,208.12
2022-08-05T04:45:47.877Z,202.50
2022-08-05T04:46:27.913Z,196.88
2022-08-05T04:47:26.337Z,185.62
2022-08-05T04:48:27.964Z,180.00
2022-08-05T04:49:39.028Z,180.00
2022-08-05T04:50:34.453Z,196.88
2022-08-05T04:51:30.639Z,208.12
2022-08-05T04:52:27.395Z,225.00
2022-08-05T04:53:25.905Z,236.25
2022-08-05T04:54:25.905Z,196.88
2022-08-05T04:56:05.091Z,191.25
2022-08-05T04:56:34.693Z,202.50
2022-08-05T04:57:29.010Z,219.38
2022-08-05T04:58:25.858Z,208.12
2022-08-05T04:59:38.443Z,202.50
2022-08-05T05:00:26.857Z,191.25
2022-08-05T05:01:33.470Z,202.50
2022-08-05T05:02:36.282Z,191.25
2022-08-05T05:03:26.807Z,185.62
2022-08-05T05:04:26.816Z,196.88
2022-08-05T05:05:28.856Z,202.50
2022-08-05T05:06:40.280Z,208.12
2022-08-05T05:07:29.691Z,208.12
2022-08-05T05:08:30.094Z,213.75
2022-08-05T05:09:25.736Z,213.75
2022-08-05T05:10:25.742Z,219.38
2022-08-05T05:11:52.829Z,225.00
2022-08-05T05:12:27.442Z,225.00
2022-08-05T05:13:25.695Z,219.38
2022-08-05T05:14:28.080Z,213.75
2022-08-05T05:15:56.253Z,208.12
2022-08-05T05:16:30.256Z,202.50
2022-08-05T05:17:57.101Z,202.50
2022-08-05T05:18:28.378Z,219.38
2022-08-05T05:19:26.639Z,225.00
2022-08-05T05:20:28.420Z,241.88
2022-08-05T05:21:27.203Z,253.12
2022-08-05T05:22:26.022Z,253.12
2022-08-05T05:23:25.588Z,202.50
2022-08-05T05:24:56.442Z,163.12
2022-08-05T05:25:32.590Z,146.25
2022-08-05T05:26:28.786Z,135.00
2022-08-05T05:27:44.656Z,129.38
2022-08-05T05:28:26.536Z,118.12
2022-08-05T05:29:25.538Z,106.88
2022-08-05T05:30:30.901Z,95.62
2022-08-05T05:31:26.506Z,84.38
2022-08-05T05:32:25.514Z,84.38
2022-08-05T05:33:25.483Z,78.75
2022-08-05T05:34:26.975Z,84.38
2022-08-05T05:35:25.476Z,84.38
2022-08-05T05:36:25.459Z,95.62
2022-08-05T05:37:37.311Z,106.88
2022-08-05T05:38:27.447Z,123.75
2022-08-05T05:39:25.461Z,140.62
2022-08-05T05:40:26.409Z,157.50
2022-08-05T05:41:25.398Z,168.75
2022-08-05T05:42:26.405Z,174.38
2022-08-05T05:43:54.793Z,185.62
2022-08-05T05:44:35.761Z,191.25
2022-08-05T05:45:26.361Z,202.50
2022-08-05T05:46:25.349Z,219.38
2022-08-05T05:47:30.333Z,230.62
2022-08-05T05:48:27.723Z,236.25
2022-08-05T05:49:25.313Z,236.25
2022-08-05T05:50:25.743Z,230.62
2022-08-05T05:51:25.530Z,225.00
2022-08-05T05:52:28.587Z,230.62
2022-08-05T05:53:26.267Z,236.25
2022-08-05T05:54:49.687Z,253.12
2022-08-05T05:55:51.656Z,270.00
2022-08-05T05:56:33.347Z,270.00
2022-08-05T05:57:26.442Z,264.38
2022-08-05T05:58:32.079Z,258.75
2022-08-05T05:59:28.636Z,247.50
2022-08-05T06:00:31.398Z,241.88
2022-08-05T06:01:29.272Z,236.25
2022-08-05T06:02:37.617Z,225.00
2022-08-05T06:03:39.994Z,230.62
2022-08-05T06:04:26.196Z,241.88
2022-08-05T06:05:25.227Z,264.38
2022-08-05T06:06:25.144Z,275.62
2022-08-05T06:07:41.834Z,281.25
2022-08-05T06:08:31.662Z,286.88
2022-08-05T06:09:52.651Z,281.25
2022-08-05T06:10:29.230Z,258.75
2022-08-05T06:11:25.070Z,247.50
2022-08-05T06:12:27.123Z,230.62
2022-08-05T06:13:25.059Z,230.62
2022-08-05T06:14:25.354Z,230.62
2022-08-05T06:15:25.037Z,230.62
2022-08-05T06:16:29.496Z,236.25
2022-08-05T06:17:30.843Z,247.50
2022-08-05T06:18:31.183Z,253.12
2022-08-05T06:19:34.865Z,258.75
2022-08-05T06:20:25.975Z,275.62
2022-08-05T06:21:25.162Z,292.50
2022-08-05T06:22:25.980Z,320.62
2022-08-05T06:23:24.950Z,331.88
2022-08-05T06:24:25.897Z,348.75
2022-08-05T06:26:12.890Z,382.50
2022-08-05T06:26:25.920Z,416.25
2022-08-05T06:28:11.537Z,461.25
2022-08-05T06:28:28.520Z,489.38
2022-08-05T06:29:46.670Z,500.62
2022-08-05T06:30:25.871Z,500.62
2022-08-05T06:31:30.521Z,506.25
2022-08-05T06:32:29.166Z,500.62
2022-08-05T06:34:04.618Z,489.38
2022-08-05T06:34:27.725Z,466.88
2022-08-05T06:36:07.720Z,438.75
2022-08-05T06:36:26.147Z,405.00
2022-08-05T06:37:56.182Z,376.88
2022-08-05T06:38:36.708Z,343.12
2022-08-05T06:39:26.837Z,326.25
2022-08-05T06:40:28.087Z,315.00
2022-08-05T06:41:25.748Z,303.75
2022-08-05T06:42:25.346Z,298.12
2022-08-05T06:43:57.268Z,303.75
2022-08-05T06:44:25.978Z,298.12
2022-08-05T06:45:45.122Z,286.88
2022-08-05T06:46:29.667Z,275.62
2022-08-05T06:48:11.758Z,270.00
2022-08-05T06:48:52.573Z,270.00
2022-08-05T06:50:00.686Z,270.00
2022-08-05T06:50:25.652Z,264.38
2022-08-05T06:51:29.905Z,253.12
2022-08-05T06:52:37.120Z,236.25
2022-08-05T06:53:28.195Z,213.75
2022-08-05T06:54:25.815Z,196.88
2022-08-05T06:55:24.608Z,180.00
2022-08-05T06:56:26.442Z,174.38
2022-08-05T06:58:02.522Z,174.38
2022-08-05T06:58:35.082Z,174.38
2022-08-05T06:59:25.585Z,180.00
2022-08-05T07:00:25.037Z,191.25
2022-08-05T07:01:32.075Z,196.88
2022-08-05T07:02:25.567Z,208.12
2022-08-05T07:03:32.325Z,213.75
2022-08-05T07:04:25.519Z,208.12
2022-08-05T07:05:37.061Z,213.75
2022-08-05T07:06:27.661Z,196.88
2022-08-05T07:07:35.551Z,174.38
2022-08-05T07:08:25.463Z,157.50
2022-08-05T07:09:24.987Z,140.62
2022-08-05T07:10:32.222Z,123.75
2022-08-05T07:11:25.730Z,112.50
2022-08-05T07:12:25.315Z,106.88
2022-08-05T07:13:56.888Z,95.62
2022-08-05T07:14:29.368Z,95.62
2022-08-05T07:15:34.420Z,101.25
2022-08-05T07:17:57.285Z,112.50
2022-08-05T07:18:02.124Z,112.50
2022-08-05T07:18:29.204Z,112.50
2022-08-05T07:20:05.823Z,112.50
2022-08-05T07:20:34.062Z,112.50
2022-08-05T07:21:25.946Z,112.50
2022-08-05T07:22:28.631Z,112.50
2022-08-05T07:23:26.559Z,129.38
2022-08-05T07:24:24.321Z,129.38
2022-08-05T07:25:55.060Z,123.75
2022-08-05T07:26:25.728Z,112.50
2022-08-05T07:27:27.681Z,95.62
2022-08-05T07:28:25.380Z,84.38
2022-08-05T07:29:25.520Z,78.75
2022-08-05T07:30:31.044Z,78.75
2022-08-05T07:31:40.870Z,84.38
2022-08-05T07:32:26.215Z,101.25
2022-08-05T07:33:35.045Z,112.50
2022-08-05T07:34:28.588Z,129.38
2022-08-05T07:36:04.333Z,129.38
2022-08-05T07:36:25.156Z,140.62
2022-08-05T07:37:24.514Z,151.88
2022-08-05T07:38:32.371Z,157.50
2022-08-05T07:40:04.545Z,163.12
2022-08-05T07:40:31.419Z,163.12
2022-08-05T07:42:08.761Z,168.75
2022-08-05T07:42:33.843Z,174.38
2022-08-05T07:43:25.084Z,168.75
2022-08-05T07:44:24.175Z,163.12
2022-08-05T07:45:31.304Z,163.12
2022-08-05T07:46:26.179Z,168.75
2022-08-05T07:47:25.874Z,163.12
2022-08-05T07:49:00.503Z,157.50
2022-08-05T07:49:25.031Z,151.88
2022-08-05T07:50:28.783Z,151.88
2022-08-05T07:51:36.699Z,163.12
2022-08-05T07:52:26.350Z,202.50
2022-08-05T07:53:23.971Z,225.00
2022-08-05T07:54:26.651Z,236.25
2022-08-05T07:55:44.360Z,247.50
2022-08-05T07:56:59.950Z,264.38
2022-08-05T07:57:50.524Z,286.88
2022-08-05T07:58:57.786Z,275.62
2022-08-05T07:59:38.808Z,241.88
2022-08-05T08:00:24.968Z,230.62
2022-08-05T08:01:26.476Z,253.12
2022-08-05T08:02:31.401Z,315.00
2022-08-05T08:03:44.423Z,348.75
2022-08-05T08:04:37.537Z,343.12
2022-08-05T08:07:25.069Z,281.25
2022-08-05T08:08:24.155Z,247.50
2022-08-05T08:09:26.648Z,236.25
2022-08-05T08:10:24.808Z,219.38
2022-08-05T08:11:27.789Z,213.75
2022-08-05T08:12:36.848Z,213.75
2022-08-05T08:13:28.979Z,236.25
2022-08-05T08:14:26.275Z,281.25
2022-08-05T08:15:37.076Z,303.75
2022-08-05T08:16:34.570Z,315.00
2022-08-05T08:17:28.657Z,331.88
2022-08-05T08:18:26.240Z,360.00
2022-08-05T08:20:22.989Z,405.00
2022-08-05T08:21:01.011Z,489.38
2022-08-05T08:21:27.302Z,573.75
2022-08-05T08:22:27.888Z,596.25
2022-08-05T08:24:02.054Z,562.50
2022-08-05T08:24:51.093Z,489.38
2022-08-05T08:25:59.831Z,433.12
2022-08-05T08:26:29.805Z,399.38
2022-08-05T08:27:40.235Z,382.50
2022-08-05T08:28:35.557Z,382.50
2022-08-05T08:30:04.073Z,376.88
2022-08-05T08:30:32.568Z,376.88
2022-08-05T08:31:27.167Z,410.62
2022-08-05T08:32:27.886Z,433.12
2022-08-05T08:33:23.553Z,438.75
2022-08-05T08:34:29.856Z,410.62
2022-08-05T08:35:26.544Z,399.38
2022-08-05T08:36:39.284Z,388.12
2022-08-05T08:37:27.991Z,360.00
2022-08-05T08:38:35.262Z,320.62
2022-08-05T08:39:24.508Z,275.62
2022-08-05T08:40:23.479Z,241.88
2022-08-05T08:41:25.912Z,219.38
2022-08-05T08:42:46.941Z,191.25
2022-08-05T08:45:18.095Z,180.00
2022-08-05T08:45:18.598Z,180.00
2022-08-05T08:45:27.268Z,168.75
2022-08-05T08:46:24.457Z,163.12
2022-08-05T08:48:06.328Z,157.50
2022-08-05T08:49:03.067Z,157.50
2022-08-05T08:50:23.482Z,168.75
2022-08-05T08:50:52.006Z,163.12
2022-08-05T08:52:03.554Z,174.38
2022-08-05T08:52:24.934Z,185.62
2022-08-05T08:53:23.325Z,196.88
2022-08-05T08:54:27.422Z,213.75
2022-08-05T08:56:01.710Z,230.62
2022-08-05T08:56:27.069Z,264.38
2022-08-05T08:57:23.303Z,315.00
2022-08-05T08:58:26.049Z,354.38
2022-08-05T08:59:27.590Z,410.62
2022-08-05T09:00:23.256Z,472.50
2022-08-05T09:01:23.259Z,511.88
2022-08-05T09:02:26.564Z,540.00
2022-08-05T09:03:23.223Z,551.25
2022-08-05T09:04:23.205Z,534.38
2022-08-05T09:05:39.018Z,495.00
2022-08-05T09:06:29.614Z,450.00
2022-08-05T09:07:28.800Z,405.00
2022-08-05T09:08:26.605Z,354.38
2022-08-05T09:09:23.171Z,303.75
2022-08-05T09:10:27.730Z,264.38
2022-08-05T09:11:51.111Z,253.12
2022-08-05T09:12:27.320Z,241.88
2022-08-05T09:13:23.623Z,241.88
2022-08-05T09:14:59.201Z,241.88
2022-08-05T09:15:24.096Z,225.00
2022-08-05T09:16:23.087Z,213.75
2022-08-05T09:17:42.238Z,191.25
2022-08-05T09:18:24.063Z,168.75
2022-08-05T09:19:27.688Z,151.88
2022-08-05T09:20:37.318Z,135.00
2022-08-05T09:22:22.326Z,123.75
2022-08-05T09:22:31.072Z,118.12
2022-08-05T09:23:27.267Z,112.50
2022-08-05T09:24:24.225Z,112.50
2022-08-05T09:25:24.350Z,135.00
2022-08-05T09:26:23.977Z,174.38
2022-08-05T09:28:04.272Z,191.25
2022-08-05T09:28:23.956Z,191.25
2022-08-05T09:29:31.002Z,174.38
2022-08-05T09:30:23.944Z,163.12
2022-08-05T09:32:40.632Z,151.88
2022-08-05T09:32:41.581Z,151.88
2022-08-05T09:33:23.921Z,146.25
2022-08-05T09:34:26.055Z,146.25
2022-08-05T09:35:26.554Z,146.25
2022-08-05T09:36:27.796Z,140.62
2022-08-05T09:38:16.773Z,140.62
2022-08-05T09:38:29.539Z,135.00
2022-08-05T09:39:23.888Z,129.38
2022-08-05T09:40:22.962Z,123.75
2022-08-05T09:41:22.822Z,123.75
2022-08-05T09:42:23.931Z,123.75
2022-08-05T09:43:23.796Z,135.00
2022-08-05T09:44:22.784Z,174.38
2022-08-05T09:46:06.729Z,225.00
2022-08-05T09:46:27.613Z,275.62
2022-08-05T09:47:22.751Z,286.88
2022-08-05T09:48:22.734Z,264.38
2022-08-05T09:49:22.727Z,247.50
2022-08-05T09:50:43.561Z,241.88
2022-08-05T09:51:23.709Z,230.62
2022-08-05T09:52:23.034Z,219.38
2022-08-05T09:53:53.989Z,219.38
2022-08-05T09:54:29.365Z,247.50
2022-08-05T09:55:57.494Z,286.88
2022-08-05T09:56:23.655Z,331.88
2022-08-05T09:57:23.481Z,393.75
2022-08-05T09:58:22.627Z,489.38
2022-08-05T09:59:22.624Z,601.88
2022-08-05T10:00:22.611Z,691.88
2022-08-05T10:01:32.372Z,720.00
2022-08-05T10:02:23.920Z,708.75
2022-08-05T10:03:22.600Z,675.00
2022-08-05T10:04:29.321Z,630.00
2022-08-05T10:05:23.556Z,596.25
2022-08-05T10:06:22.551Z,573.75
2022-08-05T10:07:50.525Z,562.50
2022-08-05T10:08:35.913Z,590.62
2022-08-05T10:09:27.350Z,624.38
2022-08-05T10:10:28.063Z,652.50
2022-08-05T10:11:22.797Z,652.50
2022-08-05T10:12:31.690Z,646.88
2022-08-05T10:13:23.464Z,624.38
2022-08-05T10:14:22.456Z,573.75
2022-08-05T10:15:22.450Z,523.12
2022-08-05T10:16:22.434Z,517.50
2022-08-05T10:17:37.667Z,540.00
2022-08-05T10:18:23.415Z,556.88
2022-08-05T10:19:23.804Z,573.75
2022-08-05T10:20:23.398Z,585.00
2022-08-05T10:21:22.401Z,585.00
2022-08-05T10:22:29.795Z,590.62
2022-08-05T10:23:55.325Z,585.00
2022-08-05T10:24:26.939Z,568.12
2022-08-05T10:25:22.339Z,523.12
2022-08-05T10:26:24.211Z,500.62
2022-08-05T10:27:26.346Z,483.75
2022-08-05T10:28:30.292Z,466.88
2022-08-05T10:29:24.220Z,444.38
2022-08-05T10:32:47.741Z,466.88
2022-08-05T10:32:52.647Z,472.50
2022-08-05T10:33:01.149Z,410.62
2022-08-05T10:33:23.295Z,388.12
2022-08-05T10:34:25.587Z,348.75
2022-08-05T10:35:23.267Z,331.88
2022-08-05T10:36:25.793Z,315.00
2022-08-05T10:37:22.216Z,303.75
2022-08-05T10:38:22.207Z,298.12
2022-08-05T10:39:24.185Z,292.50
2022-08-05T10:40:27.728Z,292.50
2022-08-05T10:41:23.282Z,286.88
2022-08-05T10:42:22.732Z,281.25
2022-08-05T10:43:23.289Z,281.25
2022-08-05T10:44:23.154Z,281.25
2022-08-05T10:45:39.750Z,281.25
2022-08-05T10:46:23.725Z,286.88
2022-08-05T10:47:26.478Z,292.50
2022-08-05T10:48:30.263Z,298.12
2022-08-05T10:49:26.795Z,292.50
2022-08-05T10:50:36.536Z,281.25
2022-08-05T10:51:29.341Z,292.50
2022-08-05T10:52:23.414Z,286.88
2022-08-05T10:53:22.049Z,292.50
2022-08-05T10:54:23.023Z,292.50
2022-08-05T10:55:23.032Z,298.12
2022-08-05T10:56:26.034Z,292.50
2022-08-05T10:57:22.022Z,253.12
2022-08-05T10:58:22.015Z,253.12
2022-08-05T11:00:02.996Z,236.25
2022-08-05T11:00:23.189Z,236.25
2022-08-05T11:01:28.249Z,236.25
2022-08-05T11:02:37.490Z,264.38
2022-08-05T11:03:26.636Z,298.12
2022-08-05T11:04:21.954Z,315.00
2022-08-05T11:05:25.232Z,320.62
2022-08-05T11:06:22.921Z,320.62
2022-08-05T11:07:32.761Z,315.00
2022-08-05T11:08:37.152Z,303.75
2022-08-05T11:09:24.408Z,298.12
2022-08-05T11:10:22.891Z,292.50
2022-08-05T11:11:21.864Z,292.50
2022-08-05T11:12:22.044Z,286.88
2022-08-05T11:13:21.843Z,286.88
2022-08-05T11:14:37.095Z,281.25
2022-08-05T11:15:22.814Z,281.25
2022-08-05T11:16:21.823Z,281.25
2022-08-05T11:17:57.083Z,281.25
2022-08-05T11:18:22.793Z,286.88
2022-08-05T11:20:10.225Z,286.88
2022-08-05T11:20:22.765Z,286.88
2022-08-05T11:21:21.752Z,292.50
2022-08-05T11:22:21.767Z,292.50
2022-08-05T11:23:21.738Z,286.88
2022-08-05T11:24:30.815Z,298.12
2022-08-05T11:26:05.499Z,286.88
2022-08-05T11:26:29.267Z,286.88
2022-08-05T11:27:22.954Z,303.75
2022-08-05T11:28:21.677Z,343.12
2022-08-05T11:29:21.668Z,382.50
2022-08-05T11:30:21.663Z,421.88
2022-08-05T11:31:54.420Z,495.00
2022-08-05T11:32:22.653Z,545.62
2022-08-05T11:33:21.631Z,551.25
2022-08-05T11:34:22.798Z,573.75
2022-08-05T11:35:21.607Z,585.00
2022-08-05T11:36:34.532Z,652.50
2022-08-05T11:38:28.420Z,731.25
2022-08-05T11:38:28.838Z,669.38
2022-08-05T11:39:22.695Z,748.12
2022-08-05T11:40:21.589Z,680.62
2022-08-05T11:41:58.034Z,573.75
2022-08-05T11:42:22.527Z,472.50
2022-08-05T11:44:00.713Z,444.38
2022-08-05T11:44:40.336Z,438.75
2022-08-05T11:46:15.369Z,495.00
2022-08-05T11:46:32.147Z,573.75
2022-08-05T11:47:48.283Z,607.50
2022-08-05T11:48:22.475Z,601.88
2022-08-05T11:49:21.461Z,573.75
2022-08-05T11:50:21.450Z,455.62
2022-08-05T11:51:44.469Z,365.62
2022-08-05T11:52:22.945Z,326.25
2022-08-05T11:53:22.437Z,320.62
2022-08-05T11:54:21.423Z,326.25
2022-08-05T11:55:21.570Z,337.50
2022-08-05T11:56:22.404Z,382.50
2022-08-05T11:57:25.895Z,495.00
2022-08-05T11:58:21.636Z,596.25
2022-08-05T11:59:21.469Z,641.25
2022-08-05T12:00:21.363Z,697.50
2022-08-05T12:01:21.344Z,742.50
2022-08-05T12:02:24.306Z,804.38
2022-08-05T12:03:29.650Z,793.12
2022-08-05T12:04:22.380Z,781.88
2022-08-05T12:05:23.918Z,731.25
2022-08-05T12:06:22.299Z,748.12
2022-08-05T12:08:07.486Z,759.38
2022-08-05T12:08:22.259Z,742.50
2022-08-05T12:09:21.261Z,675.00
2022-08-05T12:10:22.300Z,590.62
2022-08-05T12:11:21.227Z,556.88
2022-08-05T12:12:21.235Z,545.62
2022-08-05T12:13:47.730Z,540.00
2022-08-05T12:14:22.199Z,523.12
2022-08-05T12:15:38.041Z,517.50
2022-08-05T12:16:27.010Z,517.50
2022-08-05T12:18:02.605Z,534.38
2022-08-05T12:18:24.365Z,534.38
2022-08-05T12:20:17.273Z,545.62
2022-08-05T12:20:28.869Z,528.75
2022-08-05T12:21:23.574Z,545.62
2022-08-05T12:22:21.125Z,534.38
2022-08-05T12:23:21.124Z,506.25
2022-08-05T12:24:21.105Z,523.12
2022-08-05T12:25:22.281Z,511.88
2022-08-05T12:26:23.199Z,534.38
2022-08-05T12:27:21.319Z,562.50
2022-08-05T12:28:21.063Z,573.75
2022-08-05T12:29:23.090Z,579.38
2022-08-05T12:30:21.047Z,646.88
2022-08-05T12:31:23.473Z,646.88
2022-08-05T12:32:22.041Z,680.62
2022-08-05T12:33:35.936Z,725.62
2022-08-05T12:34:23.715Z,776.25
2022-08-05T12:35:21.664Z,793.12
2022-08-05T12:36:21.069Z,748.12
2022-08-05T12:37:21.749Z,708.75
2022-08-05T12:38:22.421Z,669.38
2022-08-05T12:39:22.066Z,630.00
2022-08-05T12:40:26.869Z,624.38
2022-08-05T12:41:21.924Z,686.25
2022-08-05T12:42:21.934Z,708.75
2022-08-05T12:43:21.342Z,725.62
2022-08-05T12:44:21.684Z,708.75
2022-08-05T12:45:22.124Z,708.75
2022-08-05T12:46:28.090Z,703.12